Moscow Mills, Missouri
Current Conditions -  °F | °C
As of 6:54 AM on Tuesday 21 Oct 2014 (Local Time) from KSUS Reporting Station
Clear Clear  
Wind Chill: 42°   Ceiling: Unl
Heat Index: 42°   Visibility: 10mi
Dew Point: 41°   Wind: 0mph
Humidity: 96%   Direction: NA
Pressure: 30.08"   Gusts: NA
Location:  38.95°N, 90.92°W
Report Text: KSUS 211154Z 00000KT 10SM CLR 06/05 A3008 RMK AO2 SLP189 T00560050 10078 20044 53015
Loading
Personal Weather Stations






























Interactive Weather Map
Tropical Storm Tracking
New forecast layout! Learn more

10-Day Weather Forecast

Advertisements
Track Severe Weather on mobile